sensor_id;sensor_type;location;lat;lon;timestamp;pressure;altitude;pressure_sealevel;temperature;humidity
47811;BME280;33575;52.600;7.318;2023-07-31T00:02:04;100688.22;;;16.92;97.46
47811;BME280;33575;52.600;7.318;2023-07-31T00:04:34;100684.49;;;16.90;97.45
47811;BME280;33575;52.600;7.318;2023-07-31T00:07:05;100681.30;;;16.80;98.65
47811;BME280;33575;52.600;7.318;2023-07-31T00:09:35;100684.69;;;16.90;97.43
47811;BME280;33575;52.600;7.318;2023-07-31T00:12:06;100684.25;;;16.92;97.23
47811;BME280;33575;52.600;7.318;2023-07-31T00:14:35;100681.46;;;16.87;97.74
47811;BME280;33575;52.600;7.318;2023-07-31T00:17:06;100676.97;;;16.72;98.38
47811;BME280;33575;52.600;7.318;2023-07-31T00:19:36;100668.97;;;16.74;98.42
47811;BME280;33575;52.600;7.318;2023-07-31T00:22:06;100669.11;;;16.79;98.14
47811;BME280;33575;52.600;7.318;2023-07-31T00:24:37;100671.45;;;16.78;97.44
47811;BME280;33575;52.600;7.318;2023-07-31T00:27:07;100667.56;;;16.78;97.28
47811;BME280;33575;52.600;7.318;2023-07-31T00:29:37;100669.00;;;16.79;97.63
47811;BME280;33575;52.600;7.318;2023-07-31T00:32:08;100664.09;;;16.83;97.64
47811;BME280;33575;52.600;7.318;2023-07-31T00:34:38;100657.83;;;16.74;98.20
47811;BME280;33575;52.600;7.318;2023-07-31T00:37:08;100660.43;;;16.69;98.35
47811;BME280;33575;52.600;7.318;2023-07-31T00:39:39;100659.16;;;16.68;97.87
47811;BME280;33575;52.600;7.318;2023-07-31T00:42:09;100660.12;;;16.71;97.79
47811;BME280;33575;52.600;7.318;2023-07-31T00:44:39;100656.01;;;16.71;97.51
47811;BME280;33575;52.600;7.318;2023-07-31T00:47:10;100658.13;;;16.71;97.80
47811;BME280;33575;52.600;7.318;2023-07-31T00:49:40;100658.67;;;16.68;97.81
47811;BME280;33575;52.600;7.318;2023-07-31T00:52:10;100659.30;;;16.65;97.95
47811;BME280;33575;52.600;7.318;2023-07-31T00:54:41;100655.77;;;16.60;98.56
47811;BME280;33575;52.600;7.318;2023-07-31T00:57:11;100661.46;;;16.48;99.19
47811;BME280;33575;52.600;7.318;2023-07-31T00:59:41;100655.25;;;16.49;99.15
47811;BME280;33575;52.600;7.318;2023-07-31T01:02:12;100646.53;;;16.55;98.38
47811;BME280;33575;52.600;7.318;2023-07-31T01:04:43;100643.90;;;16.55;98.95
47811;BME280;33575;52.600;7.318;2023-07-31T01:07:19;100647.61;;;16.29;100.00
47811;BME280;33575;52.600;7.318;2023-07-31T01:09:51;100641.58;;;16.37;100.00
47811;BME280;33575;52.600;7.318;2023-07-31T01:12:15;100632.68;;;16.34;100.00
47811;BME280;33575;52.600;7.318;2023-07-31T01:14:51;100626.08;;;16.40;100.00
47811;BME280;33575;52.600;7.318;2023-07-31T01:17:14;100618.48;;;16.42;99.95
47811;BME280;33575;52.600;7.318;2023-07-31T01:19:44;100617.07;;;16.39;99.49
47811;BME280;33575;52.600;7.318;2023-07-31T01:22:24;100619.44;;;16.30;100.00
47811;BME280;33575;52.600;7.318;2023-07-31T01:24:55;100621.26;;;16.30;100.00
47811;BME280;33575;52.600;7.318;2023-07-31T01:27:21;100610.32;;;16.24;100.00
47811;BME280;33575;52.600;7.318;2023-07-31T01:29:51;100611.78;;;16.25;100.00
47811;BME280;33575;52.600;7.318;2023-07-31T01:32:18;100608.48;;;16.24;100.00
47811;BME280;33575;52.600;7.318;2023-07-31T01:34:46;100607.95;;;16.15;100.00
47811;BME280;33575;52.600;7.318;2023-07-31T01:37:17;100611.31;;;16.24;100.00
47811;BME280;33575;52.600;7.318;2023-07-31T01:39:47;100607.13;;;16.26;100.00
47811;BME280;33575;52.600;7.318;2023-07-31T01:42:17;100598.85;;;16.24;100.00
47811;BME280;33575;52.600;7.318;2023-07-31T01:44:48;100598.81;;;16.33;100.00
47811;BME280;33575;52.600;7.318;2023-07-31T01:47:18;100596.49;;;16.27;100.00
47811;BME280;33575;52.600;7.318;2023-07-31T01:49:48;100588.63;;;16.22;100.00
47811;BME280;33575;52.600;7.318;2023-07-31T01:52:19;100582.74;;;16.10;100.00
47811;BME280;33575;52.600;7.318;2023-07-31T01:54:49;100580.22;;;16.22;100.00
47811;BME280;33575;52.600;7.318;2023-07-31T01:57:19;100583.26;;;16.19;100.00
47811;BME280;33575;52.600;7.318;2023-07-31T01:59:50;100572.64;;;16.18;100.00
47811;BME280;33575;52.600;7.318;2023-07-31T02:02:21;100566.68;;;16.15;100.00
47811;BME280;33575;52.600;7.318;2023-07-31T02:04:50;100570.26;;;16.21;100.00
47811;BME280;33575;52.600;7.318;2023-07-31T02:07:21;100569.43;;;16.27;100.00
47811;BME280;33575;52.600;7.318;2023-07-31T02:09:51;100572.53;;;16.32;100.00
47811;BME280;33575;52.600;7.318;2023-07-31T02:12:21;100570.82;;;16.28;100.00
47811;BME280;33575;52.600;7.318;2023-07-31T02:14:52;100563.74;;;16.23;100.00
47811;BME280;33575;52.600;7.318;2023-07-31T02:17:22;100558.00;;;16.22;100.00
47811;BME280;33575;52.600;7.318;2023-07-31T02:19:53;100551.24;;;16.21;100.00
47811;BME280;33575;52.600;7.318;2023-07-31T02:22:23;100551.77;;;16.12;100.00
47811;BME280;33575;52.600;7.318;2023-07-31T02:24:53;100548.17;;;16.12;100.00
47811;BME280;33575;52.600;7.318;2023-07-31T02:27:23;100550.52;;;16.12;100.00
47811;BME280;33575;52.600;7.318;2023-07-31T02:29:54;100538.08;;;16.06;100.00
47811;BME280;33575;52.600;7.318;2023-07-31T02:32:24;100537.35;;;16.14;100.00
47811;BME280;33575;52.600;7.318;2023-07-31T02:34:54;100542.78;;;16.05;100.00
47811;BME280;33575;52.600;7.318;2023-07-31T02:37:25;100544.89;;;16.11;100.00
47811;BME280;33575;52.600;7.318;2023-07-31T02:39:55;100539.24;;;16.05;100.00
47811;BME280;33575;52.600;7.318;2023-07-31T02:42:26;100536.82;;;16.03;100.00
47811;BME280;33575;52.600;7.318;2023-07-31T02:44:56;100538.92;;;15.98;100.00
47811;BME280;33575;52.600;7.318;2023-07-31T02:47:26;100533.01;;;15.97;100.00
47811;BME280;33575;52.600;7.318;2023-07-31T02:49:57;100530.90;;;16.01;100.00
47811;BME280;33575;52.600;7.318;2023-07-31T02:52:27;100525.75;;;15.95;100.00
47811;BME280;33575;52.600;7.318;2023-07-31T02:54:57;100516.50;;;16.00;100.00
47811;BME280;33575;52.600;7.318;2023-07-31T02:57:28;100524.39;;;16.03;100.00
47811;BME280;33575;52.600;7.318;2023-07-31T02:59:58;100529.46;;;15.99;100.00
47811;BME280;33575;52.600;7.318;2023-07-31T03:02:28;100531.59;;;15.99;100.00
47811;BME280;33575;52.600;7.318;2023-07-31T03:04:59;100520.01;;;16.02;100.00
47811;BME280;33575;52.600;7.318;2023-07-31T03:07:29;100524.37;;;16.02;100.00
47811;BME280;33575;52.600;7.318;2023-07-31T03:09:59;100520.60;;;16.01;100.00
47811;BME280;33575;52.600;7.318;2023-07-31T03:12:30;100520.83;;;16.05;100.00
47811;BME280;33575;52.600;7.318;2023-07-31T03:15:00;100518.04;;;15.99;100.00
47811;BME280;33575;52.600;7.318;2023-07-31T03:17:30;100518.85;;;15.86;100.00
47811;BME280;33575;52.600;7.318;2023-07-31T03:20:01;100520.06;;;15.94;100.00
47811;BME280;33575;52.600;7.318;2023-07-31T03:22:31;100523.74;;;16.01;100.00
47811;BME280;33575;52.600;7.318;2023-07-31T03:25:01;100522.32;;;15.96;100.00
47811;BME280;33575;52.600;7.318;2023-07-31T03:27:32;100522.66;;;15.96;100.00
47811;BME280;33575;52.600;7.318;2023-07-31T03:30:03;100513.93;;;16.07;100.00
47811;BME280;33575;52.600;7.318;2023-07-31T03:32:32;100514.20;;;15.99;100.00
47811;BME280;33575;52.600;7.318;2023-07-31T03:35:03;100524.22;;;15.90;100.00
47811;BME280;33575;52.600;7.318;2023-07-31T03:37:33;100524.53;;;15.99;100.00
47811;BME280;33575;52.600;7.318;2023-07-31T03:40:04;100519.73;;;15.84;100.00
47811;BME280;33575;52.600;7.318;2023-07-31T03:42:34;100519.38;;;15.92;100.00
47811;BME280;33575;52.600;7.318;2023-07-31T03:45:06;100516.14;;;16.04;100.00
47811;BME280;33575;52.600;7.318;2023-07-31T03:47:35;100514.47;;;15.93;100.00
47811;BME280;33575;52.600;7.318;2023-07-31T03:50:06;100514.66;;;16.03;100.00
47811;BME280;33575;52.600;7.318;2023-07-31T03:52:35;100514.58;;;16.16;100.00
47811;BME280;33575;52.600;7.318;2023-07-31T03:55:06;100516.74;;;16.20;100.00
47811;BME280;33575;52.600;7.318;2023-07-31T03:57:36;100513.29;;;16.25;100.00
47811;BME280;33575;52.600;7.318;2023-07-31T04:00:07;100521.20;;;16.16;100.00
47811;BME280;33575;52.600;7.318;2023-07-31T04:02:37;100517.95;;;16.12;100.00
47811;BME280;33575;52.600;7.318;2023-07-31T04:05:07;100514.86;;;16.21;100.00
47811;BME280;33575;52.600;7.318;2023-07-31T04:07:37;100505.98;;;16.10;100.00
47811;BME280;33575;52.600;7.318;2023-07-31T04:10:08;100501.28;;;16.23;100.00
47811;BME280;33575;52.600;7.318;2023-07-31T04:12:38;100499.32;;;16.35;100.00
47811;BME280;33575;52.600;7.318;2023-07-31T04:15:09;100501.40;;;16.44;100.00
47811;BME280;33575;52.600;7.318;2023-07-31T04:17:38;100502.42;;;16.46;100.00
47811;BME280;33575;52.600;7.318;2023-07-31T04:20:10;100498.81;;;16.37;100.00
47811;BME280;33575;52.600;7.318;2023-07-31T04:22:39;100497.31;;;16.45;100.00
47811;BME280;33575;52.600;7.318;2023-07-31T04:25:09;100496.71;;;16.47;100.00
47811;BME280;33575;52.600;7.318;2023-07-31T04:27:40;100494.26;;;16.51;100.00
47811;BME280;33575;52.600;7.318;2023-07-31T04:30:10;100489.15;;;16.53;100.00
47811;BME280;33575;52.600;7.318;2023-07-31T04:32:40;100487.42;;;16.39;100.00
47811;BME280;33575;52.600;7.318;2023-07-31T04:35:11;100492.41;;;16.47;100.00
47811;BME280;33575;52.600;7.318;2023-07-31T04:37:41;100494.18;;;16.44;100.00
47811;BME280;33575;52.600;7.318;2023-07-31T04:40:11;100492.28;;;16.39;100.00
47811;BME280;33575;52.600;7.318;2023-07-31T04:42:42;100491.22;;;16.39;100.00
47811;BME280;33575;52.600;7.318;2023-07-31T04:45:12;100487.89;;;16.40;100.00
47811;BME280;33575;52.600;7.318;2023-07-31T04:47:42;100487.45;;;16.36;100.00
47811;BME280;33575;52.600;7.318;2023-07-31T04:50:12;100490.57;;;16.28;100.00
47811;BME280;33575;52.600;7.318;2023-07-31T04:52:43;100488.38;;;16.26;100.00
47811;BME280;33575;52.600;7.318;2023-07-31T04:55:13;100484.24;;;16.38;100.00
47811;BME280;33575;52.600;7.318;2023-07-31T04:57:44;100486.83;;;16.35;100.00
47811;BME280;33575;52.600;7.318;2023-07-31T05:00:14;100480.95;;;16.34;100.00
47811;BME280;33575;52.600;7.318;2023-07-31T05:02:44;100479.12;;;16.25;100.00
47811;BME280;33575;52.600;7.318;2023-07-31T05:05:15;100482.26;;;16.40;100.00
47811;BME280;33575;52.600;7.318;2023-07-31T05:07:45;100479.57;;;16.36;100.00
47811;BME280;33575;52.600;7.318;2023-07-31T05:10:15;100480.17;;;16.31;100.00
47811;BME280;33575;52.600;7.318;2023-07-31T05:12:46;100480.78;;;16.40;100.00
47811;BME280;33575;52.600;7.318;2023-07-31T05:15:17;100479.51;;;16.32;100.00
47811;BME280;33575;52.600;7.318;2023-07-31T05:17:46;100487.04;;;16.39;100.00
47811;BME280;33575;52.600;7.318;2023-07-31T05:20:16;100484.69;;;16.45;100.00
47811;BME280;33575;52.600;7.318;2023-07-31T05:22:47;100477.17;;;16.42;100.00
47811;BME280;33575;52.600;7.318;2023-07-31T05:25:17;100473.81;;;16.46;100.00
47811;BME280;33575;52.600;7.318;2023-07-31T05:27:47;100471.79;;;16.41;100.00
47811;BME280;33575;52.600;7.318;2023-07-31T05:30:18;100467.27;;;16.46;100.00
47811;BME280;33575;52.600;7.318;2023-07-31T05:32:48;100461.60;;;16.54;100.00
47811;BME280;33575;52.600;7.318;2023-07-31T05:35:18;100452.09;;;16.65;100.00
47811;BME280;33575;52.600;7.318;2023-07-31T05:37:49;100453.11;;;16.56;100.00
47811;BME280;33575;52.600;7.318;2023-07-31T05:40:20;100459.79;;;16.60;100.00
47811;BME280;33575;52.600;7.318;2023-07-31T05:42:50;100462.67;;;16.50;100.00
47811;BME280;33575;52.600;7.318;2023-07-31T05:45:20;100464.28;;;16.47;100.00
47811;BME280;33575;52.600;7.318;2023-07-31T05:47:51;100464.75;;;16.34;100.00
47811;BME280;33575;52.600;7.318;2023-07-31T05:50:21;100465.74;;;16.45;100.00
47811;BME280;33575;52.600;7.318;2023-07-31T05:52:51;100467.17;;;16.48;100.00
47811;BME280;33575;52.600;7.318;2023-07-31T05:55:22;100471.87;;;16.55;100.00
47811;BME280;33575;52.600;7.318;2023-07-31T05:57:53;100466.70;;;16.44;100.00
47811;BME280;33575;52.600;7.318;2023-07-31T06:00:23;100463.19;;;16.39;100.00
47811;BME280;33575;52.600;7.318;2023-07-31T06:02:53;100464.46;;;16.50;100.00
47811;BME280;33575;52.600;7.318;2023-07-31T06:05:24;100460.73;;;16.52;100.00
47811;BME280;33575;52.600;7.318;2023-07-31T06:07:54;100465.18;;;16.51;100.00
47811;BME280;33575;52.600;7.318;2023-07-31T06:10:25;100467.72;;;16.56;100.00
47811;BME280;33575;52.600;7.318;2023-07-31T06:12:56;100469.67;;;16.60;100.00
47811;BME280;33575;52.600;7.318;2023-07-31T06:15:26;100471.12;;;16.63;100.00
47811;BME280;33575;52.600;7.318;2023-07-31T06:17:57;100467.22;;;16.59;100.00
47811;BME280;33575;52.600;7.318;2023-07-31T06:20:27;100465.81;;;16.60;100.00
47811;BME280;33575;52.600;7.318;2023-07-31T06:22:58;100461.14;;;16.52;100.00
47811;BME280;33575;52.600;7.318;2023-07-31T06:25:28;100452.75;;;16.51;100.00
47811;BME280;33575;52.600;7.318;2023-07-31T06:27:58;100455.11;;;16.63;100.00
47811;BME280;33575;52.600;7.318;2023-07-31T06:30:29;100454.31;;;16.66;100.00
47811;BME280;33575;52.600;7.318;2023-07-31T06:32:59;100453.29;;;16.57;100.00
47811;BME280;33575;52.600;7.318;2023-07-31T06:35:30;100454.94;;;16.46;100.00
47811;BME280;33575;52.600;7.318;2023-07-31T06:38:00;100460.13;;;16.60;100.00
47811;BME280;33575;52.600;7.318;2023-07-31T06:40:31;100465.43;;;16.60;100.00
47811;BME280;33575;52.600;7.318;2023-07-31T06:43:01;100458.97;;;16.50;100.00
47811;BME280;33575;52.600;7.318;2023-07-31T06:45:32;100464.53;;;16.41;100.00
47811;BME280;33575;52.600;7.318;2023-07-31T06:48:03;100465.09;;;16.48;100.00
47811;BME280;33575;52.600;7.318;2023-07-31T06:50:32;100461.01;;;16.44;100.00
47811;BME280;33575;52.600;7.318;2023-07-31T06:53:03;100454.90;;;16.56;100.00
47811;BME280;33575;52.600;7.318;2023-07-31T06:55:33;100454.66;;;16.51;100.00
47811;BME280;33575;52.600;7.318;2023-07-31T06:58:03;100449.89;;;16.41;100.00
47811;BME280;33575;52.600;7.318;2023-07-31T07:00:34;100450.05;;;16.50;100.00
47811;BME280;33575;52.600;7.318;2023-07-31T07:03:04;100450.64;;;16.56;100.00
47811;BME280;33575;52.600;7.318;2023-07-31T07:05:34;100448.30;;;16.64;100.00
47811;BME280;33575;52.600;7.318;2023-07-31T07:08:05;100452.51;;;16.69;100.00
47811;BME280;33575;52.600;7.318;2023-07-31T07:10:35;100450.49;;;16.68;100.00
47811;BME280;33575;52.600;7.318;2023-07-31T07:13:05;100454.06;;;16.69;100.00
47811;BME280;33575;52.600;7.318;2023-07-31T07:15:36;100445.96;;;16.64;100.00
47811;BME280;33575;52.600;7.318;2023-07-31T07:18:06;100440.47;;;16.50;100.00
47811;BME280;33575;52.600;7.318;2023-07-31T07:20:37;100438.72;;;16.63;100.00
47811;BME280;33575;52.600;7.318;2023-07-31T07:23:08;100432.35;;;16.54;100.00
47811;BME280;33575;52.600;7.318;2023-07-31T07:25:38;100429.05;;;16.58;100.00
47811;BME280;33575;52.600;7.318;2023-07-31T07:28:09;100422.10;;;16.60;100.00
47811;BME280;33575;52.600;7.318;2023-07-31T07:30:39;100416.71;;;16.63;100.00
47811;BME280;33575;52.600;7.318;2023-07-31T07:33:10;100416.32;;;16.69;100.00
47811;BME280;33575;52.600;7.318;2023-07-31T07:35:40;100419.16;;;16.64;100.00
47811;BME280;33575;52.600;7.318;2023-07-31T07:38:11;100416.30;;;16.73;100.00
47811;BME280;33575;52.600;7.318;2023-07-31T07:40:42;100411.30;;;16.73;100.00
47811;BME280;33575;52.600;7.318;2023-07-31T07:43:12;100402.57;;;16.63;100.00
47811;BME280;33575;52.600;7.318;2023-07-31T07:45:43;100399.48;;;16.58;100.00
47811;BME280;33575;52.600;7.318;2023-07-31T07:48:13;100386.48;;;16.63;100.00
47811;BME280;33575;52.600;7.318;2023-07-31T07:50:43;100377.03;;;16.73;100.00
47811;BME280;33575;52.600;7.318;2023-07-31T07:53:14;100368.46;;;16.70;100.00
47811;BME280;33575;52.600;7.318;2023-07-31T07:55:44;100370.43;;;16.75;100.00
47811;BME280;33575;52.600;7.318;2023-07-31T07:58:15;100366.49;;;16.63;100.00
47811;BME280;33575;52.600;7.318;2023-07-31T08:00:49;100374.19;;;16.77;100.00
47811;BME280;33575;52.600;7.318;2023-07-31T08:03:16;100381.70;;;16.88;100.00
47811;BME280;33575;52.600;7.318;2023-07-31T08:05:46;100384.11;;;16.88;100.00
47811;BME280;33575;52.600;7.318;2023-07-31T08:08:17;100377.80;;;16.87;100.00
47811;BME280;33575;52.600;7.318;2023-07-31T08:10:47;100371.43;;;16.80;100.00
47811;BME280;33575;52.600;7.318;2023-07-31T08:13:18;100375.44;;;16.94;100.00
47811;BME280;33575;52.600;7.318;2023-07-31T08:15:48;100367.64;;;16.87;100.00
47811;BME280;33575;52.600;7.318;2023-07-31T08:18:18;100358.00;;;16.82;100.00
47811;BME280;33575;52.600;7.318;2023-07-31T08:20:49;100354.32;;;16.81;100.00
47811;BME280;33575;52.600;7.318;2023-07-31T08:23:19;100362.17;;;16.75;100.00
47811;BME280;33575;52.600;7.318;2023-07-31T08:25:50;100357.28;;;16.92;100.00
47811;BME280;33575;52.600;7.318;2023-07-31T08:28:20;100353.29;;;16.83;100.00
47811;BME280;33575;52.600;7.318;2023-07-31T08:30:50;100351.58;;;16.94;100.00
47811;BME280;33575;52.600;7.318;2023-07-31T08:33:21;100345.73;;;16.93;100.00
47811;BME280;33575;52.600;7.318;2023-07-31T08:35:51;100343.03;;;16.88;100.00
47811;BME280;33575;52.600;7.318;2023-07-31T08:38:21;100345.91;;;16.93;100.00
47811;BME280;33575;52.600;7.318;2023-07-31T08:40:51;100343.34;;;16.89;100.00
47811;BME280;33575;52.600;7.318;2023-07-31T08:43:23;100345.78;;;16.98;100.00
47811;BME280;33575;52.600;7.318;2023-07-31T08:45:52;100346.91;;;17.09;100.00
47811;BME280;33575;52.600;7.318;2023-07-31T08:48:23;100344.65;;;17.17;100.00
47811;BME280;33575;52.600;7.318;2023-07-31T08:50:53;100338.56;;;17.20;100.00
47811;BME280;33575;52.600;7.318;2023-07-31T08:53:23;100335.99;;;17.24;100.00
47811;BME280;33575;52.600;7.318;2023-07-31T08:55:53;100334.36;;;17.21;100.00
47811;BME280;33575;52.600;7.318;2023-07-31T08:58:24;100333.64;;;17.23;100.00
47811;BME280;33575;52.600;7.318;2023-07-31T09:00:55;100332.78;;;17.14;100.00
47811;BME280;33575;52.600;7.318;2023-07-31T09:03:25;100328.40;;;17.24;100.00
47811;BME280;33575;52.600;7.318;2023-07-31T09:05:57;100328.69;;;17.30;100.00
47811;BME280;33575;52.600;7.318;2023-07-31T09:08:27;100327.23;;;17.31;100.00
47811;BME280;33575;52.600;7.318;2023-07-31T09:10:59;100332.91;;;17.36;100.00
47811;BME280;33575;52.600;7.318;2023-07-31T09:13:26;100326.59;;;17.30;100.00
47811;BME280;33575;52.600;7.318;2023-07-31T09:15:56;100326.36;;;17.34;100.00
47811;BME280;33575;52.600;7.318;2023-07-31T09:18:26;100327.50;;;17.32;100.00
47811;BME280;33575;52.600;7.318;2023-07-31T09:21:01;100327.35;;;17.40;100.00
47811;BME280;33575;52.600;7.318;2023-07-31T09:25:57;100323.88;;;17.30;100.00
47811;BME280;33575;52.600;7.318;2023-07-31T09:28:31;100324.23;;;17.56;100.00
47811;BME280;33575;52.600;7.318;2023-07-31T09:30:57;100320.48;;;17.62;100.00
47811;BME280;33575;52.600;7.318;2023-07-31T09:33:28;100316.08;;;17.69;100.00
47811;BME280;33575;52.600;7.318;2023-07-31T09:35:59;100321.42;;;17.72;100.00
47811;BME280;33575;52.600;7.318;2023-07-31T09:38:28;100317.74;;;17.72;100.00
47811;BME280;33575;52.600;7.318;2023-07-31T09:40:59;100317.98;;;17.62;100.00
47811;BME280;33575;52.600;7.318;2023-07-31T09:43:29;100320.29;;;17.73;100.00
47811;BME280;33575;52.600;7.318;2023-07-31T09:45:59;100310.86;;;17.66;100.00
47811;BME280;33575;52.600;7.318;2023-07-31T09:48:29;100308.93;;;17.55;100.00
47811;BME280;33575;52.600;7.318;2023-07-31T09:51:04;100302.54;;;17.60;100.00
47811;BME280;33575;52.600;7.318;2023-07-31T09:53:30;100302.37;;;17.59;100.00
47811;BME280;33575;52.600;7.318;2023-07-31T09:56:01;100298.46;;;17.68;100.00
47811;BME280;33575;52.600;7.318;2023-07-31T09:58:33;100291.02;;;17.68;100.00
47811;BME280;33575;52.600;7.318;2023-07-31T10:01:02;100289.95;;;17.73;100.00
47811;BME280;33575;52.600;7.318;2023-07-31T10:03:32;100287.57;;;17.78;100.00
47811;BME280;33575;52.600;7.318;2023-07-31T10:06:01;100287.50;;;17.69;100.00
47811;BME280;33575;52.600;7.318;2023-07-31T10:08:34;100285.98;;;17.77;100.00
47811;BME280;33575;52.600;7.318;2023-07-31T10:11:02;100279.46;;;17.80;100.00
47811;BME280;33575;52.600;7.318;2023-07-31T10:13:32;100277.86;;;17.81;100.00
47811;BME280;33575;52.600;7.318;2023-07-31T10:16:03;100282.17;;;17.96;100.00
47811;BME280;33575;52.600;7.318;2023-07-31T10:18:34;100280.90;;;18.00;100.00
47811;BME280;33575;52.600;7.318;2023-07-31T10:21:04;100282.81;;;17.89;100.00
47811;BME280;33575;52.600;7.318;2023-07-31T10:23:34;100282.13;;;17.99;100.00
47811;BME280;33575;52.600;7.318;2023-07-31T10:26:04;100279.86;;;17.94;100.00
47811;BME280;33575;52.600;7.318;2023-07-31T10:28:34;100276.34;;;18.06;100.00
47811;BME280;33575;52.600;7.318;2023-07-31T10:31:05;100275.98;;;17.89;100.00
47811;BME280;33575;52.600;7.318;2023-07-31T10:33:35;100274.97;;;18.01;100.00
47811;BME280;33575;52.600;7.318;2023-07-31T10:36:12;100270.85;;;17.85;100.00
47811;BME280;33575;52.600;7.318;2023-07-31T10:38:35;100278.69;;;18.02;100.00
47811;BME280;33575;52.600;7.318;2023-07-31T10:41:08;100273.78;;;18.10;100.00
47811;BME280;33575;52.600;7.318;2023-07-31T10:43:37;100267.57;;;18.24;100.00
47811;BME280;33575;52.600;7.318;2023-07-31T10:46:07;100269.66;;;18.12;100.00
47811;BME280;33575;52.600;7.318;2023-07-31T10:48:37;100267.71;;;18.15;100.00
47811;BME280;33575;52.600;7.318;2023-07-31T10:51:08;100268.18;;;18.19;100.00
47811;BME280;33575;52.600;7.318;2023-07-31T10:53:38;100263.31;;;18.04;100.00
47811;BME280;33575;52.600;7.318;2023-07-31T10:56:08;100267.57;;;18.23;100.00
47811;BME280;33575;52.600;7.318;2023-07-31T10:58:38;100260.97;;;18.12;100.00
47811;BME280;33575;52.600;7.318;2023-07-31T11:01:08;100261.98;;;18.19;100.00
47811;BME280;33575;52.600;7.318;2023-07-31T11:03:43;100257.66;;;18.12;100.00
47811;BME280;33575;52.600;7.318;2023-07-31T11:06:08;100256.16;;;18.27;100.00
47811;BME280;33575;52.600;7.318;2023-07-31T11:08:42;100265.66;;;18.17;100.00
47811;BME280;33575;52.600;7.318;2023-07-31T11:11:10;100254.55;;;18.26;100.00
47811;BME280;33575;52.600;7.318;2023-07-31T11:13:41;100252.76;;;18.23;100.00
47811;BME280;33575;52.600;7.318;2023-07-31T11:16:10;100257.54;;;18.34;100.00
47811;BME280;33575;52.600;7.318;2023-07-31T11:18:41;100247.90;;;18.32;100.00
47811;BME280;33575;52.600;7.318;2023-07-31T11:21:12;100253.52;;;18.29;100.00
47811;BME280;33575;52.600;7.318;2023-07-31T11:23:41;100253.56;;;18.32;100.00
47811;BME280;33575;52.600;7.318;2023-07-31T11:26:11;100251.24;;;18.14;100.00
47811;BME280;33575;52.600;7.318;2023-07-31T11:28:41;100266.39;;;18.02;100.00
47811;BME280;33575;52.600;7.318;2023-07-31T11:31:11;100256.22;;;18.11;100.00
47811;BME280;33575;52.600;7.318;2023-07-31T11:33:41;100249.97;;;18.05;100.00
47811;BME280;33575;52.600;7.318;2023-07-31T11:36:14;100247.76;;;18.32;100.00
47811;BME280;33575;52.600;7.318;2023-07-31T11:38:42;100244.29;;;18.41;100.00
47811;BME280;33575;52.600;7.318;2023-07-31T11:41:15;100240.30;;;18.19;100.00
47811;BME280;33575;52.600;7.318;2023-07-31T11:43:42;100242.90;;;18.24;100.00
47811;BME280;33575;52.600;7.318;2023-07-31T11:46:13;100242.57;;;18.32;100.00
47811;BME280;33575;52.600;7.318;2023-07-31T11:48:43;100243.05;;;18.39;100.00
47811;BME280;33575;52.600;7.318;2023-07-31T11:51:14;100237.08;;;18.36;100.00
47811;BME280;33575;52.600;7.318;2023-07-31T11:53:46;100234.01;;;18.52;100.00
47811;BME280;33575;52.600;7.318;2023-07-31T11:56:17;100245.35;;;18.36;100.00
47811;BME280;33575;52.600;7.318;2023-07-31T11:58:46;100242.34;;;18.39;100.00
47811;BME280;33575;52.600;7.318;2023-07-31T12:01:19;100237.19;;;18.36;100.00
47811;BME280;33575;52.600;7.318;2023-07-31T12:03:45;100233.48;;;18.27;100.00
47811;BME280;33575;52.600;7.318;2023-07-31T12:06:15;100235.27;;;18.38;100.00
47811;BME280;33575;52.600;7.318;2023-07-31T12:08:45;100238.16;;;18.25;100.00
47811;BME280;33575;52.600;7.318;2023-07-31T12:11:15;100235.48;;;18.34;100.00
47811;BME280;33575;52.600;7.318;2023-07-31T12:13:46;100234.45;;;18.10;100.00
47811;BME280;33575;52.600;7.318;2023-07-31T12:16:16;100237.98;;;18.14;100.00
47811;BME280;33575;52.600;7.318;2023-07-31T12:18:49;100231.72;;;18.34;100.00
47811;BME280;33575;52.600;7.318;2023-07-31T12:21:16;100232.34;;;18.28;100.00
47811;BME280;33575;52.600;7.318;2023-07-31T12:23:47;100238.44;;;18.27;100.00
47811;BME280;33575;52.600;7.318;2023-07-31T12:26:17;100228.95;;;18.11;100.00
47811;BME280;33575;52.600;7.318;2023-07-31T12:28:49;100231.53;;;18.12;100.00
47811;BME280;33575;52.600;7.318;2023-07-31T12:31:20;100225.37;;;18.29;100.00
47811;BME280;33575;52.600;7.318;2023-07-31T12:33:50;100229.48;;;18.31;100.00
47811;BME280;33575;52.600;7.318;2023-07-31T12:36:21;100231.75;;;18.34;100.00
47811;BME280;33575;52.600;7.318;2023-07-31T12:38:50;100230.97;;;18.37;100.00
47811;BME280;33575;52.600;7.318;2023-07-31T12:41:19;100225.81;;;18.31;100.00
47811;BME280;33575;52.600;7.318;2023-07-31T12:43:49;100222.76;;;18.46;100.00
47811;BME280;33575;52.600;7.318;2023-07-31T12:46:19;100227.65;;;18.48;100.00
47811;BME280;33575;52.600;7.318;2023-07-31T12:48:49;100226.48;;;18.49;100.00
47811;BME280;33575;52.600;7.318;2023-07-31T12:51:20;100227.78;;;18.74;100.00
47811;BME280;33575;52.600;7.318;2023-07-31T12:53:50;100228.81;;;18.73;100.00
47811;BME280;33575;52.600;7.318;2023-07-31T12:56:20;100223.13;;;18.75;100.00
47811;BME280;33575;52.600;7.318;2023-07-31T12:58:50;100225.61;;;18.81;100.00